Terminal Aerodrome Forecast
Issued by NWS

Home | Current Version | Previous Version | Text Only | Print | Product List | Glossary On
Versions: 1 2 3 4 5 6 7 8 9 10 11 12 13 14 15
000
FTUS46 KLOX 070525
TAFPMD
TAF
KPMD 070525Z 0706/0806 22012KT P6SM SKC
     FM071400 VRB03KT P6SM SKC
     FM072000 25014KT P6SM SKC
     FM080000 25018G24KT P6SM SKC
     FM080300 25012KT P6SM SKC=

USA.gov is the U.S. government's official web portal to all federal, state and local government web resources and services.